Time;durP1;ratioP1;P1;durP2;ratioP2;P2;SDS_P1;SDS_P2;PMS_P1;PMS_P2;Temp;Humidity;BMP_temperature;BMP_pressure;BME280_temperature;BME280_humidity;BME280_pressure;Samples;Min_cycle;Max_cycle;Signal;HPM_P1;HPM_P2
2021/07/22 00:01:54;;;;;;;28.70;13.85;;;;;;;16.15;80.95;102471.06;4947216;28;20110;-52
2021/07/22 00:04:19;;;;;;;29.38;14.43;;;;;;;16.11;81.32;102470.97;4954045;28;20138;-47
2021/07/22 00:06:44;;;;;;;29.75;14.15;;;;;;;16.07;82.06;102464.78;4949677;28;20043;-48
2021/07/22 00:09:10;;;;;;;28.23;13.57;;;;;;;16.06;81.90;102467.38;4952919;28;20551;-49
2021/07/22 00:11:36;;;;;;;27.05;13.90;;;;;;;16.02;81.58;102466.47;4954072;28;20049;-49
2021/07/22 00:14:01;;;;;;;30.33;15.07;;;;;;;16.00;81.62;102465.53;4946372;28;20077;-49
2021/07/22 00:16:27;;;;;;;30.77;15.38;;;;;;;15.97;82.06;102464.63;4944360;28;20407;-54
2021/07/22 00:18:52;;;;;;;28.83;13.95;;;;;;;15.95;82.36;102466.31;4944098;28;20032;-52
2021/07/22 00:21:17;;;;;;;29.27;14.57;;;;;;;15.94;82.48;102462.81;4947910;28;20035;-51
2021/07/22 00:23:43;;;;;;;27.75;14.30;;;;;;;15.90;82.52;102461.00;4944588;28;20619;-48
2021/07/22 00:26:11;;;;;;;30.27;14.90;;;;;;;15.88;82.26;102464.44;4952326;28;20062;-47
2021/07/22 00:28:36;;;;;;;30.63;15.77;;;;;;;15.87;82.83;102466.19;4949189;28;20051;-47
2021/07/22 00:31:02;;;;;;;33.22;15.18;;;;;;;15.85;82.88;102461.78;4948933;28;20077;-48
2021/07/22 00:33:27;;;;;;;32.67;14.27;;;;;;;15.83;82.66;102461.75;4944821;28;21609;-51
2021/07/22 00:35:53;;;;;;;32.88;15.77;;;;;;;15.81;83.06;102460.81;4951920;28;20139;-49
2021/07/22 00:38:18;;;;;;;31.52;15.77;;;;;;;15.78;83.47;102461.69;4949093;28;20035;-49
2021/07/22 00:40:47;;;;;;;35.40;16.67;;;;;;;15.76;83.50;102458.13;4952323;28;20055;-48
2021/07/22 00:43:12;;;;;;;35.85;17.30;;;;;;;15.76;83.50;102454.59;4946660;28;20062;-48
2021/07/22 00:45:37;;;;;;;35.65;17.25;;;;;;;15.75;83.36;102451.09;4945603;28;20096;-50
2021/07/22 00:48:03;;;;;;;35.60;17.50;;;;;;;15.73;83.46;102447.56;4934940;28;20031;-50
2021/07/22 00:50:32;;;;;;;38.83;19.15;;;;;;;15.70;84.30;102450.13;4952906;28;20202;-50
2021/07/22 00:53:00;;;;;;;40.25;18.33;;;;;;;15.71;84.17;102448.38;4946688;28;20503;-47
2021/07/22 00:55:30;;;;;;;35.45;17.10;;;;;;;15.70;84.20;102446.63;4930490;28;20114;-49
2021/07/22 00:57:55;;;;;;;34.88;16.40;;;;;;;15.69;83.88;102448.34;4954882;28;20069;-47
2021/07/22 01:00:21;;;;;;;43.13;20.42;;;;;;;15.68;83.60;102456.19;4938600;28;20137;-48
2021/07/22 01:02:46;;;;;;;38.20;19.27;;;;;;;15.66;84.14;102452.69;4945089;28;20058;-50
2021/07/22 01:05:12;;;;;;;35.25;17.52;;;;;;;15.66;84.17;102455.31;4950300;28;20491;-48
2021/07/22 01:07:37;;;;;;;37.22;17.92;;;;;;;15.64;84.04;102455.28;4950605;28;20035;-49
2021/07/22 01:10:04;;;;;;;40.78;19.17;;;;;;;15.62;83.72;102453.47;4957923;28;21259;-51
2021/07/22 01:12:30;;;;;;;43.00;20.30;;;;;;;15.60;83.90;102457.84;4955474;28;20042;-53
2021/07/22 01:14:55;;;;;;;35.60;17.20;;;;;;;15.59;84.13;102451.69;4945495;28;20494;-49
2021/07/22 01:17:36;;;;;;;37.05;18.05;;;;;;;15.57;83.93;102449.88;4936982;28;20122;-47
2021/07/22 01:20:02;;;;;;;36.42;17.33;;;;;;;15.57;84.01;102449.88;4952928;28;20394;-51
2021/07/22 01:22:30;;;;;;;39.50;18.85;;;;;;;15.56;84.03;102448.09;4953052;28;20041;-48
2021/07/22 01:24:56;;;;;;;36.70;18.30;;;;;;;15.52;83.98;102449.81;4951996;28;20027;-49
2021/07/22 01:27:21;;;;;;;38.65;17.08;;;;;;;15.53;83.91;102446.31;4954415;28;20043;-49
2021/07/22 01:29:47;;;;;;;41.53;19.30;;;;;;;15.51;84.50;102448.00;4936739;28;20031;-50
2021/07/22 01:32:13;;;;;;;44.70;19.45;;;;;;;15.49;84.73;102441.81;4946874;28;20490;-50
2021/07/22 01:34:38;;;;;;;44.75;20.65;;;;;;;15.48;84.64;102444.44;4946838;28;20458;-52
2021/07/22 01:37:04;;;;;;;38.80;18.48;;;;;;;15.45;84.54;102437.38;4949684;28;20082;-50
2021/07/22 01:39:29;;;;;;;39.88;19.23;;;;;;;15.42;84.46;102443.47;4939876;28;20119;-52
2021/07/22 01:41:54;;;;;;;46.47;21.05;;;;;;;15.40;84.52;102445.19;4943737;28;20395;-47
2021/07/22 01:44:20;;;;;;;41.40;19.45;;;;;;;15.39;84.30;102445.13;4944932;28;20034;-50
2021/07/22 01:46:45;;;;;;;39.28;19.00;;;;;;;15.38;84.62;102449.50;4946556;28;20051;-52
2021/07/22 01:49:10;;;;;;;43.53;21.45;;;;;;;15.34;84.79;102447.69;4947680;28;20433;-51
2021/07/22 01:51:36;;;;;;;48.80;21.23;;;;;;;15.33;84.86;102445.03;4963601;28;20434;-51
2021/07/22 01:54:01;;;;;;;43.40;19.85;;;;;;;15.33;84.77;102447.66;4954438;28;20446;-47
2021/07/22 01:56:26;;;;;;;44.05;19.48;;;;;;;15.30;84.51;102442.34;4960796;28;20706;-50
2021/07/22 01:58:52;;;;;;;42.40;19.52;;;;;;;15.27;84.56;102443.16;4948686;28;20387;-48
2021/07/22 02:01:17;;;;;;;44.22;20.40;;;;;;;15.29;84.84;102446.72;4943216;28;20336;-47
2021/07/22 02:03:42;;;;;;;43.30;21.80;;;;;;;15.32;84.97;102443.25;4942202;28;20031;-50
2021/07/22 02:06:09;;;;;;;41.35;19.83;;;;;;;15.29;85.07;102440.59;4947639;28;20047;-48
2021/07/22 02:08:35;;;;;;;47.45;20.63;;;;;;;15.27;84.92;102432.66;4948015;28;20027;-52
2021/07/22 02:11:04;;;;;;;45.75;21.40;;;;;;;15.27;85.29;102444.91;4950930;28;20406;-51
2021/07/22 02:13:29;;;;;;;58.85;25.55;;;;;;;15.27;85.20;102434.41;4942557;28;20027;-48
2021/07/22 02:15:55;;;;;;;49.38;21.17;;;;;;;15.26;84.86;102436.13;4952695;28;20032;-49
2021/07/22 02:18:20;;;;;;;47.42;22.10;;;;;;;15.24;84.98;102436.97;4943670;28;20031;-48
2021/07/22 02:20:46;;;;;;;50.80;22.25;;;;;;;15.22;85.04;102439.56;4953801;28;20456;-48
2021/07/22 02:23:11;;;;;;;50.65;21.38;;;;;;;15.22;84.89;102438.69;4945561;28;20066;-49
2021/07/22 02:25:37;;;;;;;51.83;23.50;;;;;;;15.21;85.01;102444.78;4947031;28;20040;-53
2021/07/22 02:28:02;;;;;;;50.10;22.15;;;;;;;15.18;84.79;102445.63;4963604;28;20074;-50
2021/07/22 02:30:28;;;;;;;48.17;21.98;;;;;;;15.16;84.68;102446.44;4939797;28;20594;-49
2021/07/22 02:32:53;;;;;;;51.67;22.85;;;;;;;15.16;85.03;102443.81;4950084;28;20071;-49
2021/07/22 02:35:19;;;;;;;48.60;23.58;;;;;;;15.15;85.09;102440.31;4977774;28;20016;-48
2021/07/22 02:37:45;;;;;;;55.35;24.35;;;;;;;15.17;85.36;102435.97;4949203;28;21878;-48
2021/07/22 02:40:11;;;;;;;54.80;24.80;;;;;;;15.15;85.27;102439.41;4943223;28;20097;-50
2021/07/22 02:42:36;;;;;;;68.00;29.38;;;;;;;15.17;85.46;102448.22;4939066;28;20034;-49
2021/07/22 02:45:04;;;;;;;56.67;24.27;;;;;;;15.20;85.06;102443.91;4956331;28;20088;-48
2021/07/22 02:47:30;;;;;;;46.72;20.83;;;;;;;15.19;85.00;102446.50;4945972;28;20031;-50
2021/07/22 02:49:55;;;;;;;55.42;23.65;;;;;;;15.19;85.04;102447.38;4948921;28;20226;-53
2021/07/22 02:52:20;;;;;;;63.13;27.90;;;;;;;15.15;84.82;102447.31;4953208;28;20022;-49
2021/07/22 02:54:46;;;;;;;59.78;26.85;;;;;;;15.11;84.83;102445.47;4941935;28;20482;-51
2021/07/22 02:57:11;;;;;;;60.45;26.42;;;;;;;15.10;85.12;102449.84;4949577;28;20039;-53
2021/07/22 02:59:36;;;;;;;58.15;25.55;;;;;;;15.11;85.30;102448.09;4940432;28;20541;-49
2021/07/22 03:02:02;;;;;;;57.70;25.40;;;;;;;15.10;85.30;102455.09;4948921;28;20660;-48
2021/07/22 03:04:29;;;;;;;67.63;29.83;;;;;;;15.11;85.37;102459.50;4949776;28;20035;-48
2021/07/22 03:06:54;;;;;;;58.53;26.35;;;;;;;15.12;85.17;102456.03;4948687;28;20110;-49
2021/07/22 03:09:20;;;;;;;60.63;27.58;;;;;;;15.10;85.23;102455.09;4946481;28;20045;-48
2021/07/22 03:11:45;;;;;;;58.05;27.02;;;;;;;15.09;84.92;102457.69;4957235;28;20031;-53
2021/07/22 03:14:10;;;;;;;62.58;29.02;;;;;;;15.11;85.08;102449.00;4940750;28;20015;-54
2021/07/22 03:16:36;;;;;;;57.33;25.83;;;;;;;15.13;84.86;102442.00;4960829;28;20039;-49
2021/07/22 03:19:01;;;;;;;55.95;25.48;;;;;;;15.06;84.89;102440.16;4930757;28;20138;-53
2021/07/22 03:21:26;;;;;;;57.35;26.00;;;;;;;15.02;84.90;102439.19;4939031;28;20801;-51
2021/07/22 03:23:52;;;;;;;51.50;24.20;;;;;;;14.98;84.76;102439.09;4945744;28;20594;-50
2021/07/22 03:26:18;;;;;;;56.72;24.55;;;;;;;14.95;84.75;102441.63;4947170;28;20035;-51
2021/07/22 03:28:44;;;;;;;49.10;22.30;;;;;;;14.91;84.65;102443.34;4949123;28;20039;-48
2021/07/22 03:31:10;;;;;;;49.30;22.42;;;;;;;14.94;85.06;102440.75;4952513;28;20144;-50
2021/07/22 03:33:35;;;;;;;52.55;25.17;;;;;;;14.91;84.93;102450.31;4949905;28;20419;-49
2021/07/22 03:36:02;;;;;;;66.55;28.67;;;;;;;14.90;85.20;102440.66;4954349;28;20073;-50
2021/07/22 03:38:28;;;;;;;64.20;28.00;;;;;;;14.91;85.27;102434.56;4937773;28;20804;-47
2021/07/22 03:40:53;;;;;;;54.95;25.10;;;;;;;14.95;85.04;102439.00;4953716;28;20027;-52
2021/07/22 03:43:18;;;;;;;57.90;25.63;;;;;;;14.98;85.06;102442.59;4948472;28;20028;-52
2021/07/22 03:45:43;;;;;;;57.75;26.70;;;;;;;15.01;84.74;102442.66;4956907;28;20027;-50
2021/07/22 03:48:09;;;;;;;54.70;25.02;;;;;;;15.02;84.57;102441.81;4945120;28;20718;-52
2021/07/22 03:50:34;;;;;;;45.70;23.40;;;;;;;15.00;84.46;102440.03;4942748;28;20337;-50
2021/07/22 03:53:00;;;;;;;46.83;23.15;;;;;;;14.98;84.20;102439.97;4947924;28;20475;-51
2021/07/22 03:55:25;;;;;;;41.47;21.75;;;;;;;14.99;84.21;102443.50;4949451;28;20486;-48
2021/07/22 03:57:51;;;;;;;44.65;21.08;;;;;;;14.97;84.15;102437.31;4949610;28;20036;-48
2021/07/22 04:00:17;;;;;;;42.90;22.05;;;;;;;14.96;84.22;102439.06;4944343;28;20532;-51
2021/07/22 04:02:42;;;;;;;43.75;22.08;;;;;;;14.99;83.71;102441.75;4947993;28;20627;-47
2021/07/22 04:05:08;;;;;;;41.83;20.83;;;;;;;14.99;83.65;102444.38;4964980;28;20105;-50
2021/07/22 04:07:34;;;;;;;43.80;20.50;;;;;;;14.98;83.74;102439.09;4953610;28;20027;-48
2021/07/22 04:09:59;;;;;;;41.22;20.88;;;;;;;14.95;83.54;102437.28;4944643;28;20449;-53
2021/07/22 04:12:26;;;;;;;39.25;19.13;;;;;;;14.94;83.50;102439.91;4929036;28;20448;-52
2021/07/22 04:14:51;;;;;;;44.20;21.10;;;;;;;14.92;83.49;102441.59;4957063;28;20026;-50
2021/07/22 04:17:17;;;;;;;42.95;21.40;;;;;;;14.90;83.75;102443.28;4956562;28;20042;-48
2021/07/22 04:19:42;;;;;;;44.50;22.23;;;;;;;14.87;83.91;102432.75;4942448;28;20514;-48
2021/07/22 04:22:08;;;;;;;46.35;22.27;;;;;;;14.90;83.94;102443.28;4946085;28;20070;-48
2021/07/22 04:24:34;;;;;;;46.78;22.27;;;;;;;14.95;83.93;102446.91;4952426;28;20596;-50
2021/07/22 04:26:59;;;;;;;44.33;22.30;;;;;;;14.95;84.53;102445.16;4947153;28;20434;-49
2021/07/22 04:29:24;;;;;;;46.08;22.58;;;;;;;14.96;84.12;102444.31;4958567;28;20146;-49
2021/07/22 04:31:50;;;;;;;42.60;21.38;;;;;;;15.00;84.35;102450.53;4957107;28;20657;-52
2021/07/22 04:34:15;;;;;;;46.95;21.75;;;;;;;15.05;84.31;102445.34;4962023;28;20051;-48
2021/07/22 04:36:42;;;;;;;43.17;21.45;;;;;;;15.10;83.98;102455.09;4937638;28;20033;-49
2021/07/22 04:39:07;;;;;;;39.17;20.92;;;;;;;15.17;83.90;102462.25;4945945;28;20027;-51
2021/07/22 04:41:33;;;;;;;32.90;18.50;;;;;;;15.29;82.31;102462.50;4950651;28;20027;-52
2021/07/22 04:43:58;;;;;;;38.28;19.23;;;;;;;15.42;82.19;102458.34;4954792;28;20050;-50
2021/07/22 04:46:23;;;;;;;34.05;19.20;;;;;;;15.54;82.00;102465.63;4941484;28;20133;-53
2021/07/22 04:48:49;;;;;;;33.20;17.85;;;;;;;15.67;81.30;102468.50;4949951;28;20027;-50
2021/07/22 04:51:14;;;;;;;31.73;16.83;;;;;;;15.97;80.22;102464.63;4949923;28;20511;-49
2021/07/22 04:53:40;;;;;;;28.05;15.48;;;;;;;16.29;78.83;102457.19;4943722;28;20031;-51
2021/07/22 04:56:05;;;;;;;24.83;15.15;;;;;;;16.58;77.57;102459.44;4940044;28;20034;-50
2021/07/22 04:58:30;;;;;;;27.55;14.80;;;;;;;16.98;75.59;102449.41;4928131;28;20544;-52
2021/07/22 05:00:56;;;;;;;23.77;13.98;;;;;;;17.44;74.30;102456.09;4942953;28;20046;-51
2021/07/22 05:03:21;;;;;;;22.17;12.10;;;;;;;18.05;71.46;102456.69;4930449;28;20031;-52
2021/07/22 05:05:46;;;;;;;20.35;11.98;;;;;;;18.40;69.60;102459.56;4951590;28;20049;-49
2021/07/22 05:08:12;;;;;;;19.75;12.20;;;;;;;18.50;69.50;102459.63;4962357;28;20440;-52
2021/07/22 05:10:37;;;;;;;19.02;11.98;;;;;;;18.77;68.85;102455.41;4951360;28;20839;-54
2021/07/22 05:13:06;;;;;;;18.90;11.10;;;;;;;19.05;67.17;102452.00;4957540;28;20491;-49
2021/07/22 05:15:32;;;;;;;18.05;11.10;;;;;;;19.27;65.81;102453.81;4944216;28;21402;-48
2021/07/22 05:17:57;;;;;;;18.27;11.18;;;;;;;19.02;66.54;102452.00;4948971;28;20035;-50
2021/07/22 05:20:23;;;;;;;16.65;10.55;;;;;;;18.69;67.00;102451.84;4945189;28;20038;-47
2021/07/22 05:22:48;;;;;;;15.38;10.40;;;;;;;18.38;68.04;102456.91;4960458;28;20031;-47
2021/07/22 05:25:14;;;;;;;17.17;10.57;;;;;;;18.21;69.08;102455.91;4947482;28;20027;-50
2021/07/22 05:27:39;;;;;;;20.90;10.77;;;;;;;18.20;69.22;102460.31;4953715;28;20074;-53
2021/07/22 05:30:05;;;;;;;15.63;10.10;;;;;;;18.16;70.22;102453.25;4957706;28;20031;-50
2021/07/22 05:32:31;;;;;;;16.55;10.18;;;;;;;18.13;69.73;102460.25;4951059;28;20061;-50
2021/07/22 05:34:56;;;;;;;16.98;9.77;;;;;;;18.12;69.97;102455.84;4941447;28;20044;-51
2021/07/22 05:37:21;;;;;;;16.45;10.20;;;;;;;17.90;70.32;102460.06;4953562;28;20118;-47
2021/07/22 05:39:47;;;;;;;20.90;10.27;;;;;;;17.90;70.63;102467.09;4942952;28;20074;-48
2021/07/22 05:42:12;;;;;;;16.35;9.93;;;;;;;17.90;70.43;102460.06;4948356;28;20044;-47
2021/07/22 05:44:37;;;;;;;17.17;10.20;;;;;;;17.80;70.46;102455.59;4944581;28;20114;-50
2021/07/22 05:47:04;;;;;;;16.90;10.38;;;;;;;17.83;70.91;102452.97;4957424;28;20495;-47
2021/07/22 05:49:30;;;;;;;15.07;9.32;;;;;;;17.99;70.51;102460.13;4928629;28;20069;-47
2021/07/22 05:51:55;;;;;;;15.32;9.15;;;;;;;17.85;69.76;102456.53;4932521;28;20114;-51
2021/07/22 05:54:21;;;;;;;14.70;9.20;;;;;;;17.93;70.39;102453.94;4947975;28;20037;-53
2021/07/22 05:56:46;;;;;;;18.90;9.88;;;;;;;17.93;69.67;102459.22;4960901;28;20025;-51
2021/07/22 05:59:12;;;;;;;16.23;9.23;;;;;;;18.05;69.99;102457.53;4947655;28;20181;-49
2021/07/22 06:01:37;;;;;;;15.13;9.02;;;;;;;18.35;68.41;102454.28;4946821;28;20125;-51
2021/07/22 06:04:02;;;;;;;14.32;8.52;;;;;;;19.16;66.18;102466.13;4954997;28;20542;-52
2021/07/22 06:06:28;;;;;;;13.07;8.20;;;;;;;19.94;62.34;102456.59;4955260;28;20027;-51
2021/07/22 06:08:54;;;;;;;13.18;7.78;;;;;;;20.13;62.11;102463.63;4950974;28;20015;-50
2021/07/22 06:11:19;;;;;;;14.10;8.15;;;;;;;19.69;62.29;102458.34;4962685;28;20034;-53
2021/07/22 06:13:45;;;;;;;14.73;8.80;;;;;;;19.50;63.87;102461.84;4941160;28;20503;-49
2021/07/22 06:16:13;;;;;;;14.55;8.32;;;;;;;19.17;64.82;102459.06;4945255;28;20154;-48
2021/07/22 06:18:42;;;;;;;13.45;8.77;;;;;;;18.70;65.65;102464.16;4949580;28;20093;-50
2021/07/22 06:21:11;;;;;;;12.93;8.25;;;;;;;18.78;67.23;102466.00;4965303;28;20128;-49
2021/07/22 06:23:36;;;;;;;14.63;8.43;;;;;;;18.85;66.55;102462.47;4948795;28;20128;-52
2021/07/22 06:26:02;;;;;;;15.20;8.80;;;;;;;19.01;66.47;102456.41;4933071;28;21075;-50
2021/07/22 06:28:28;;;;;;;16.05;8.93;;;;;;;19.21;64.72;102464.38;4943591;28;20782;-50
2021/07/22 06:30:54;;;;;;;15.43;8.35;;;;;;;18.99;66.57;102452.84;4938243;28;20728;-51
2021/07/22 06:33:19;;;;;;;14.68;8.48;;;;;;;19.18;65.43;102460.84;4939107;28;20029;-53
2021/07/22 06:35:45;;;;;;;12.20;8.00;;;;;;;19.32;64.80;102470.59;4944689;28;20124;-52
2021/07/22 06:38:10;;;;;;;15.23;8.45;;;;;;;19.20;65.09;102457.34;4934659;28;20030;-51
2021/07/22 06:40:36;;;;;;;13.18;8.45;;;;;;;19.55;64.11;102465.38;4944672;28;20027;-50
2021/07/22 06:43:02;;;;;;;12.60;8.57;;;;;;;20.16;61.73;102471.59;4944730;28;20317;-48
2021/07/22 06:45:27;;;;;;;15.65;8.45;;;;;;;20.44;62.14;102464.50;4945514;28;20653;-49
2021/07/22 06:47:52;;;;;;;12.05;6.90;;;;;;;21.69;58.34;102461.28;4945279;28;20038;-49
2021/07/22 06:50:18;;;;;;;10.35;7.28;;;;;;;21.84;56.77;102467.34;4935749;28;20106;-48
2021/07/22 06:52:43;;;;;;;13.27;7.35;;;;;;;21.71;57.01;102464.84;4943978;28;20781;-47
2021/07/22 06:55:09;;;;;;;11.13;7.22;;;;;;;21.50;56.84;102467.63;4940516;28;20785;-51
2021/07/22 06:57:35;;;;;;;13.95;7.00;;;;;;;21.35;57.55;102471.22;4944877;28;20397;-48
2021/07/22 07:00:01;;;;;;;13.43;7.25;;;;;;;21.18;58.46;102466.03;4943712;28;20031;-48
2021/07/22 07:02:27;;;;;;;10.98;6.90;;;;;;;20.91;58.11;102469.69;4946455;28;21812;-49
2021/07/22 07:04:52;;;;;;;10.57;7.30;;;;;;;20.80;58.40;102467.97;4941148;28;20714;-48
2021/07/22 07:07:19;;;;;;;10.55;6.70;;;;;;;21.40;57.34;102466.81;4941087;28;20053;-47
2021/07/22 07:09:44;;;;;;;10.48;6.80;;;;;;;22.42;55.38;102461.56;4944274;28;20361;-50
2021/07/22 07:12:10;;;;;;;11.13;6.80;;;;;;;22.53;52.80;102462.31;4946011;28;20323;-50
2021/07/22 07:14:35;;;;;;;9.60;6.55;;;;;;;22.84;52.35;102462.88;4947401;28;20034;-48
2021/07/22 07:17:02;;;;;;;11.55;6.80;;;;;;;22.42;53.02;102463.31;4940291;28;20578;-50
2021/07/22 07:19:27;;;;;;;9.30;6.53;;;;;;;22.36;53.42;102466.03;4945529;28;20035;-49
2021/07/22 07:21:52;;;;;;;9.40;6.47;;;;;;;22.14;53.82;102470.69;4943936;28;20108;-51
2021/07/22 07:24:18;;;;;;;8.85;6.57;;;;;;;22.73;52.70;102469.22;4945845;28;21051;-48
2021/07/22 07:26:43;;;;;;;9.50;6.20;;;;;;;;;;4946361;28;20027;-52
2021/07/22 07:29:09;;;;;;;11.98;6.15;;;;;;;24.71;47.48;102467.88;4942057;28;20117;-50
2021/07/22 07:31:34;;;;;;;10.20;6.25;;;;;;;25.18;46.43;102466.03;4941815;28;20555;-49
2021/07/22 07:34:07;;;;;;;10.02;5.97;;;;;;;25.74;47.27;102465.63;4954773;28;20027;-50
2021/07/22 07:36:32;;;;;;;8.93;5.90;;;;;;;26.37;45.08;102464.91;4950439;28;20130;-49
2021/07/22 07:38:58;;;;;;;10.55;6.03;;;;;;;26.55;43.70;102463.53;4943393;28;20294;-49
2021/07/22 07:41:23;;;;;;;10.60;5.60;;;;;;;26.84;44.86;102460.88;4940056;28;20035;-51
2021/07/22 07:43:49;;;;;;;10.60;6.03;;;;;;;26.76;42.84;102464.72;4932165;28;20024;-48
2021/07/22 07:46:14;;;;;;;14.05;6.40;;;;;;;26.17;43.02;102468.06;4936540;28;20046;-50
2021/07/22 07:48:39;;;;;;;10.32;5.78;;;;;;;26.82;42.94;102461.88;4945166;28;20113;-52
2021/07/22 07:51:08;;;;;;;9.20;5.60;;;;;;;26.34;43.92;102461.47;4945685;28;20180;-49
2021/07/22 07:53:34;;;;;;;8.10;5.90;;;;;;;26.20;45.46;102461.78;4943063;28;20035;-49
2021/07/22 07:55:59;;;;;;;10.57;6.18;;;;;;;25.91;44.33;102470.56;4931892;28;20366;-51
2021/07/22 07:58:24;;;;;;;8.52;6.45;;;;;;;24.18;47.53;102476.84;4947949;28;20041;-51
2021/07/22 08:00:50;;;;;;;8.80;6.35;;;;;;;23.67;49.63;102475.94;4948532;28;20410;-46
2021/07/22 08:03:19;;;;;;;10.80;6.70;;;;;;;23.44;50.47;102473.59;4946916;28;20525;-50
2021/07/22 08:05:46;;;;;;;11.48;6.88;;;;;;;23.31;50.05;102478.19;4943737;28;20143;-51
2021/07/22 08:08:11;;;;;;;11.20;7.00;;;;;;;22.99;50.81;102469.78;4940588;28;20037;-52
2021/07/22 08:10:40;;;;;;;10.77;6.93;;;;;;;23.64;49.71;102479.53;4923813;28;80581;-48
2021/07/22 08:13:09;;;;;;;8.88;5.60;;;;;;;23.75;49.77;102472.25;4925204;28;20027;-48
2021/07/22 08:15:40;;;;;;;10.45;6.70;;;;;;;23.23;50.57;102466.81;4915458;28;20095;-49
2021/07/22 08:18:46;;;;;;;9.98;6.65;;;;;;;23.82;49.60;102465.94;5063677;27;21224;-51
2021/07/22 08:21:14;;;;;;;11.15;5.95;;;;;;;24.14;49.19;102467.16;5059844;28;20400;-53
2021/07/22 08:25:52;;;;;;;12.63;6.95;;;;;;;22.30;52.69;102468.75;5023919;28;20407;-52
2021/07/22 08:28:18;;;;;;;11.20;6.90;;;;;;;22.17;52.93;102473.31;5008078;28;20022;-52
2021/07/22 08:30:43;;;;;;;10.02;6.15;;;;;;;22.25;53.51;102484.75;5009219;28;20455;-51
2021/07/22 08:33:09;;;;;;;8.88;6.70;;;;;;;21.91;54.40;102472.63;4952984;28;20050;-52
2021/07/22 08:35:34;;;;;;;12.23;6.90;;;;;;;22.10;54.21;102479.56;4966910;28;20572;-49
2021/07/22 08:38:00;;;;;;;10.02;6.60;;;;;;;22.31;54.66;102476.72;4964096;28;20038;-49
2021/07/22 08:40:26;;;;;;;12.27;6.90;;;;;;;23.02;53.10;102457.31;4965920;28;20426;-50
2021/07/22 08:42:53;;;;;;;10.98;6.55;;;;;;;23.22;51.64;102466.81;4963192;28;20463;-49
2021/07/22 08:45:18;;;;;;;12.27;7.22;;;;;;;22.82;51.38;102469.09;4964943;28;20034;-46
2021/07/22 08:47:44;;;;;;;13.02;7.18;;;;;;;23.47;53.93;102465.59;4962574;28;20244;-49
2021/07/22 08:50:11;;;;;;;12.30;6.53;;;;;;;23.95;53.00;102463.06;4980106;28;20034;-48
2021/07/22 08:52:37;;;;;;;8.63;6.28;;;;;;;23.99;49.13;102464.75;4961076;28;20240;-50
2021/07/22 08:55:04;;;;;;;8.95;6.32;;;;;;;24.09;47.97;102458.38;4962690;28;20996;-51
2021/07/22 08:57:32;;;;;;;10.18;6.35;;;;;;;24.10;49.01;102461.00;4960587;28;20130;-50
2021/07/22 08:59:59;;;;;;;10.35;6.88;;;;;;;24.50;49.83;102454.97;4964732;28;20039;-49
2021/07/22 09:02:27;;;;;;;10.15;6.47;;;;;;;24.50;48.60;102449.66;4962332;28;20038;-47
2021/07/22 09:04:56;;;;;;;9.13;6.47;;;;;;;24.40;47.73;102446.25;4965476;28;20493;-50
2021/07/22 09:07:22;;;;;;;9.45;5.78;;;;;;;24.61;46.14;102451.19;4962100;28;20041;-51
2021/07/22 09:10:03;;;;;;;7.47;5.72;;;;;;;24.29;48.95;102453.59;4965519;28;20285;-51
2021/07/22 09:12:36;;;;;;;8.93;6.10;;;;;;;24.76;49.48;102452.69;4965101;28;20323;-52
2021/07/22 09:15:02;;;;;;;8.07;6.05;;;;;;;24.33;46.70;102463.31;4961882;28;20168;-49
2021/07/22 09:17:28;;;;;;;10.32;5.75;;;;;;;24.11;46.97;102452.09;4961471;28;20037;-48
2021/07/22 09:19:53;;;;;;;13.20;6.43;;;;;;;24.17;46.37;102459.97;4963137;28;20030;-50
2021/07/22 09:22:32;;;;;;;9.57;5.97;;;;;;;24.30;46.87;102462.47;4961506;28;20030;-52
2021/07/22 09:24:58;;;;;;;6.70;5.35;;;;;;;24.30;48.28;102463.34;4964740;28;20061;-49
2021/07/22 09:27:43;;;;;;;7.32;5.40;;;;;;;24.77;49.64;102458.88;4960262;28;20486;-49
2021/07/22 09:30:16;;;;;;;10.40;5.88;;;;;;;24.93;44.75;102460.34;4979324;28;20169;-49
2021/07/22 09:32:44;;;;;;;14.30;5.28;;;;;;;24.70;45.41;102460.81;4966548;28;20034;-51
2021/07/22 09:35:20;;;;;;;8.82;5.50;;;;;;;24.78;45.38;102452.63;4960911;28;20027;-50
2021/07/22 09:37:53;;;;;;;10.75;6.10;;;;;;;25.05;47.85;102458.31;4951913;28;20041;-49
2021/07/22 09:40:25;;;;;;;11.30;6.30;;;;;;;25.25;44.26;102449.84;4947539;28;20053;-51
2021/07/22 09:42:54;;;;;;;11.73;5.57;;;;;;;25.34;45.64;102454.09;4951506;28;20042;-50
2021/07/22 09:45:25;;;;;;;8.48;5.50;;;;;;;25.56;45.08;102457.13;4946477;28;20372;-49
2021/07/22 09:47:52;;;;;;;8.07;5.65;;;;;;;24.99;43.55;102458.44;4953099;28;20100;-52
2021/07/22 09:50:19;;;;;;;11.20;6.22;;;;;;;25.10;43.95;102455.53;4944623;28;20164;-53
2021/07/22 09:52:46;;;;;;;7.63;5.28;;;;;;;24.67;45.52;102464.41;4950130;28;20514;-50
2021/07/22 09:55:29;;;;;;;9.52;5.47;;;;;;;24.75;44.01;102455.38;4951741;28;20045;-54
2021/07/22 09:57:57;;;;;;;9.10;6.07;;;;;;;24.81;44.22;102460.56;4952342;28;20114;-47
2021/07/22 10:00:24;;;;;;;7.93;5.25;;;;;;;25.36;43.37;102454.94;4948759;28;20029;-47
2021/07/22 10:02:51;;;;;;;11.07;5.78;;;;;;;25.14;43.41;102454.53;4946303;28;20550;-52
2021/07/22 10:05:19;;;;;;;9.98;5.88;;;;;;;25.12;44.16;102455.50;4948089;28;20091;-50
2021/07/22 10:07:44;;;;;;;8.50;5.50;;;;;;;25.05;46.49;102452.09;4948573;28;20069;-50
2021/07/22 10:10:12;;;;;;;10.98;5.70;;;;;;;25.27;45.43;102453.34;4950246;28;20145;-47
2021/07/22 10:12:43;;;;;;;11.77;5.60;;;;;;;24.99;45.22;102460.22;4950593;28;20027;-48
2021/07/22 10:15:09;;;;;;;7.72;5.53;;;;;;;24.69;45.70;102461.72;4966831;28;20066;-48
2021/07/22 10:17:36;;;;;;;8.73;5.65;;;;;;;24.72;47.27;102460.75;4950136;28;20053;-48
2021/07/22 10:20:06;;;;;;;9.30;5.95;;;;;;;25.03;48.52;102460.13;4950287;28;20058;-53
2021/07/22 10:22:32;;;;;;;7.47;5.25;;;;;;;25.52;45.72;102455.47;4949715;28;20395;-48
2021/07/22 10:24:57;;;;;;;8.80;5.55;;;;;;;25.79;45.88;102455.72;4944874;28;20288;-49
2021/07/22 10:27:24;;;;;;;9.55;5.40;;;;;;;25.76;44.44;102450.44;4951027;28;20023;-50
2021/07/22 10:29:49;;;;;;;8.93;5.57;;;;;;;25.56;42.76;102458.00;4947044;28;20109;-48
2021/07/22 10:32:26;;;;;;;8.00;6.00;;;;;;;24.24;45.97;102452.78;4968118;28;20723;-53
2021/07/22 10:34:52;;;;;;;10.00;5.63;;;;;;;24.39;50.36;102462.31;4964590;28;20034;-53
2021/07/22 10:37:19;;;;;;;8.93;5.63;;;;;;;24.69;46.85;102463.50;4962987;28;20029;-50
2021/07/22 10:40:10;;;;;;;10.88;5.88;;;;;;;24.58;45.87;102453.91;4949293;28;20414;-52
2021/07/22 10:42:46;;;;;;;11.20;5.20;;;;;;;25.04;46.78;102447.66;4946568;28;20054;-48
2021/07/22 10:45:18;;;;;;;8.30;5.25;;;;;;;25.36;48.00;102452.28;4948504;28;20097;-52
2021/07/22 10:47:59;;;;;;;9.40;5.50;;;;;;;25.40;47.78;102451.28;4947379;28;20394;-49
2021/07/22 10:50:47;;;;;;;10.25;5.70;;;;;;;25.12;46.81;102444.84;4951499;28;20046;-48
2021/07/22 10:53:12;;;;;;;8.15;5.60;;;;;;;25.10;46.53;102443.97;4935289;28;20451;-52
2021/07/22 10:55:41;;;;;;;10.00;5.80;;;;;;;24.98;46.21;102437.13;4946713;28;20097;-51
2021/07/22 10:58:39;;;;;;;8.57;5.57;;;;;;;25.35;44.16;102442.50;4949759;28;20500;-48
2021/07/22 11:01:05;;;;;;;13.15;9.40;;;;;;;25.62;44.90;102432.97;4949576;28;20378;-50
2021/07/22 11:03:37;;;;;;;8.80;6.07;;;;;;;25.76;43.60;102436.19;4946386;28;20043;-51
2021/07/22 11:06:13;;;;;;;9.30;6.00;;;;;;;25.85;44.64;102434.19;4963822;28;20510;-53
2021/07/22 11:08:43;;;;;;;9.98;5.10;;;;;;;25.63;43.54;102434.75;4948811;28;20073;-53
2021/07/22 11:11:15;;;;;;;11.05;8.00;;;;;;;25.58;46.11;102436.66;4947621;28;20134;-48
2021/07/22 11:13:48;;;;;;;10.15;5.00;;;;;;;25.69;46.27;102431.91;4953263;28;20554;-48
2021/07/22 11:16:31;;;;;;;9.15;7.20;;;;;;;25.93;44.79;102433.09;4942821;28;20027;-49